Time;durP1;ratioP1;P1;durP2;ratioP2;P2;SDS_P1;SDS_P2;PMS_P1;PMS_P2;Temp;Humidity;BMP_temperature;BMP_pressure;BME280_temperature;BME280_humidity;BME280_pressure;Samples;Min_cycle;Max_cycle;Signal;HPM_P1;HPM_P2
2024/04/04 00:03:28;;;;;;;0.38;0.08;;;;;;;11.20;94.68;151493.03;10457412;28;20048;-73
2024/04/04 00:08:29;;;;;;;0.63;0.10;;;;;;;10.95;96.62;151428.44;10457743;28;20041;-74
2024/04/04 00:13:30;;;;;;;0.20;0.10;;;;;;;11.09;95.31;151465.88;10441010;28;20075;-73
2024/04/04 00:18:31;;;;;;;0.10;0.10;;;;;;;11.06;95.67;151458.09;10457814;28;20488;-73
2024/04/04 00:23:32;;;;;;;0.10;0.10;;;;;;;11.06;95.30;151458.09;10441533;28;20041;-73
2024/04/04 00:28:34;;;;;;;0.10;0.10;;;;;;;10.89;95.83;151412.91;10457703;28;20372;-73
2024/04/04 00:33:35;;;;;;;0.15;0.10;;;;;;;10.90;96.05;151415.53;10457238;28;20033;-73
2024/04/04 00:38:36;;;;;;;0.43;0.10;;;;;;;10.75;96.40;151379.31;10458710;28;20130;-73
2024/04/04 00:43:37;;;;;;;0.10;0.10;;;;;;;10.59;97.47;151339.31;10457889;28;20497;-73
2024/04/04 00:48:38;;;;;;;0.30;0.17;;;;;;;10.41;98.46;151292.84;10456897;28;20045;-74
2024/04/04 00:53:39;;;;;;;0.00;0.00;;;;;;;10.37;99.89;151282.53;10456433;28;20516;-73
2024/04/04 00:58:41;;;;;;;0.10;0.10;;;;;;;10.55;98.57;151329.00;10447251;28;20057;-73
2024/04/04 01:03:42;;;;;;;0.10;0.10;;;;;;;10.67;97.29;151357.38;10465087;28;20045;-73
2024/04/04 01:08:42;;;;;;;0.10;0.10;;;;;;;11.00;94.50;151442.63;10465013;28;20051;-73
2024/04/04 01:13:43;;;;;;;0.20;0.20;;;;;;;11.05;93.87;151454.25;10464022;28;20037;-73
2024/04/04 01:18:45;;;;;;;0.22;0.10;;;;;;;11.13;93.84;151473.63;10465350;28;20497;-73
2024/04/04 01:23:46;;;;;;;0.10;0.10;;;;;;;11.38;91.36;151538.25;10464119;28;20037;-73
2024/04/04 01:28:47;;;;;;;0.10;0.10;;;;;;;11.34;92.95;151527.91;10463802;28;20055;-72
2024/04/04 01:33:47;;;;;;;0.30;0.30;;;;;;;11.07;94.79;151460.72;10446878;28;20424;-72
2024/04/04 01:38:48;;;;;;;0.10;0.10;;;;;;;11.41;92.02;151544.69;10464167;28;20037;-73
2024/04/04 01:43:49;;;;;;;0.65;0.22;;;;;;;11.42;92.31;151548.59;10463652;28;20132;-72
2024/04/04 01:48:50;;;;;;;0.20;0.20;;;;;;;11.35;95.02;151531.75;10463432;28;20080;-72
2024/04/04 01:53:51;;;;;;;0.22;0.20;;;;;;;11.23;100.00;151499.47;10464839;28;20098;-73
2024/04/04 01:58:52;;;;;;;0.10;0.10;;;;;;;11.02;100.00;151446.47;10466745;28;20394;-73
2024/04/04 02:03:52;;;;;;;0.32;0.20;;;;;;;11.16;100.00;151482.69;10449050;28;20041;-74
2024/04/04 02:08:53;;;;;;;0.30;0.20;;;;;;;11.08;100.00;151463.31;10430628;28;20091;-74
2024/04/04 02:13:55;;;;;;;0.30;0.30;;;;;;;11.19;100.00;151489.13;10466189;28;20048;-73
2024/04/04 02:18:57;;;;;;;0.20;0.20;;;;;;;11.13;100.00;151474.91;10463763;28;20067;-73
2024/04/04 02:23:58;;;;;;;0.20;0.20;;;;;;;11.17;100.00;151483.97;10463806;28;20037;-73
2024/04/04 02:28:59;;;;;;;0.20;0.20;;;;;;;11.22;100.00;151498.16;10465206;28;20103;-73
2024/04/04 02:34:00;;;;;;;1.58;0.40;;;;;;;11.17;100.00;151483.97;10464217;28;20063;-74
2024/04/04 02:39:02;;;;;;;1.38;0.20;;;;;;;11.05;100.00;151454.25;10464702;28;20447;-73
2024/04/04 02:44:04;;;;;;;0.43;0.20;;;;;;;11.05;100.00;151454.25;10464495;28;20130;-73
2024/04/04 02:49:05;;;;;;;0.28;0.20;;;;;;;11.01;100.00;151443.91;10463035;28;20083;-73
2024/04/04 02:54:06;;;;;;;0.85;0.30;;;;;;;11.01;100.00;151443.91;10462179;28;20102;-74
2024/04/04 02:59:07;;;;;;;0.50;0.10;;;;;;;11.00;100.00;151442.63;10461811;28;20044;-74
2024/04/04 03:04:08;;;;;;;0.45;0.20;;;;;;;11.06;100.00;151458.09;10461684;28;20078;-73
2024/04/04 03:09:11;;;;;;;0.65;0.25;;;;;;;11.01;100.00;151445.19;10461013;28;20493;-74
2024/04/04 03:14:12;;;;;;;0.47;0.20;;;;;;;11.05;100.00;151454.25;10444789;28;20037;-73
2024/04/04 03:19:13;;;;;;;0.73;0.40;;;;;;;10.90;100.00;151416.81;10459584;28;20134;-72
2024/04/04 03:24:14;;;;;;;0.38;0.22;;;;;;;10.82;100.00;151397.44;10442205;28;20041;-72
2024/04/04 03:29:15;;;;;;;0.13;0.13;;;;;;;10.89;100.00;151414.25;10459064;28;20443;-73
2024/04/04 03:34:16;;;;;;;0.20;0.15;;;;;;;10.98;100.00;151437.47;10459261;28;20041;-73
2024/04/04 03:39:16;;;;;;;0.85;0.55;;;;;;;10.96;100.00;151431.00;10441924;28;20497;-72
2024/04/04 03:44:17;;;;;;;2.25;0.30;;;;;;;10.86;100.00;151407.75;10458805;28;20440;-74
2024/04/04 03:49:18;;;;;;;0.20;0.20;;;;;;;11.12;100.00;151472.34;10459385;28;20057;-73
2024/04/04 03:54:19;;;;;;;0.43;0.30;;;;;;;11.15;100.00;151478.78;10458240;28;20362;-74
2024/04/04 03:59:21;;;;;;;0.85;0.40;;;;;;;11.10;100.00;151467.16;10459624;28;20048;-72
2024/04/04 04:04:22;;;;;;;0.55;0.40;;;;;;;11.13;100.00;151473.63;10458393;28;20041;-73
2024/04/04 04:09:23;;;;;;;0.70;0.22;;;;;;;11.11;100.00;151471.06;10460001;28;20149;-73
2024/04/04 04:14:23;;;;;;;0.95;0.50;;;;;;;11.07;100.00;151460.72;10459180;28;20423;-72
2024/04/04 04:19:24;;;;;;;0.55;0.40;;;;;;;11.16;100.00;151481.41;10458262;28;20078;-73
2024/04/04 04:24:25;;;;;;;0.40;0.40;;;;;;;11.11;100.00;151469.72;10458327;28;20139;-73
2024/04/04 04:29:26;;;;;;;1.98;0.60;;;;;;;11.23;100.00;151499.47;10442814;28;20033;-73
2024/04/04 04:34:26;;;;;;;0.40;0.38;;;;;;;11.29;100.00;151515.00;10441930;28;20045;-73
2024/04/04 04:39:28;;;;;;;0.70;0.50;;;;;;;11.23;100.00;151500.75;10459927;28;20041;-74
2024/04/04 04:44:29;;;;;;;0.93;0.60;;;;;;;11.19;100.00;151490.41;10441610;28;20516;-74
2024/04/04 04:49:32;;;;;;;1.00;0.90;;;;;;;11.19;100.00;151489.13;10459407;28;20157;-73
2024/04/04 04:54:32;;;;;;;1.88;0.70;;;;;;;11.28;100.00;151513.66;10459540;28;20041;-73
2024/04/04 04:59:33;;;;;;;1.35;0.47;;;;;;;10.99;100.00;151440.06;10459828;28;20029;-74
2024/04/04 05:04:34;;;;;;;1.67;0.60;;;;;;;11.02;100.00;151446.47;10457634;28;20041;-74
2024/04/04 05:09:35;;;;;;;0.90;0.70;;;;;;;11.16;100.00;151482.69;10440855;28;20071;-71
2024/04/04 05:14:36;;;;;;;1.20;0.50;;;;;;;11.11;100.00;151469.72;10459469;28;20041;-74
2024/04/04 05:19:37;;;;;;;0.30;0.30;;;;;;;10.95;100.00;151429.72;10458859;28;20041;-73
2024/04/04 05:24:37;;;;;;;0.40;0.40;;;;;;;10.97;100.00;151434.88;10440970;28;20158;-75
2024/04/04 05:29:39;;;;;;;1.25;0.40;;;;;;;10.86;100.00;151406.47;10458738;28;20048;-71
2024/04/04 05:34:40;;;;;;;0.75;0.30;;;;;;;10.96;100.00;151432.28;10456731;28;20112;-71
2024/04/04 05:39:41;;;;;;;1.13;0.25;;;;;;;10.75;100.00;151378.03;10438646;28;20049;-71
2024/04/04 05:44:42;;;;;;;0.22;0.20;;;;;;;10.72;98.06;151371.63;10460743;28;20033;-71
2024/04/04 05:49:43;;;;;;;0.20;0.20;;;;;;;10.98;91.98;151437.47;10462657;28;20127;-72
2024/04/04 05:54:47;;;;;;;0.30;0.10;;;;;;;11.11;88.89;151471.06;10462257;28;20516;-71
2024/04/04 05:59:48;;;;;;;0.63;0.30;;;;;;;11.16;87.54;151482.69;10461769;28;20064;-71
2024/04/04 06:04:50;;;;;;;0.40;0.30;;;;;;;11.55;90.09;151580.84;10446004;28;20044;-73
2024/04/04 06:09:50;;;;;;;0.98;0.13;;;;;;;12.75;80.87;151884.66;10444355;28;20179;-73
2024/04/04 06:14:51;;;;;;;1.10;0.17;;;;;;;13.19;74.77;151997.19;10461020;28;20041;-73
2024/04/04 06:19:52;;;;;;;0.55;0.10;;;;;;;13.13;74.47;151982.97;10460522;28;20127;-74
2024/04/04 06:24:53;;;;;;;4.00;0.28;;;;;;;13.12;72.84;151980.41;10463337;28;20033;-73
2024/04/04 06:29:54;;;;;;;0.52;0.10;;;;;;;12.66;74.74;151861.41;10462075;28;20041;-73
2024/04/04 06:34:54;;;;;;;0.22;0.20;;;;;;;12.49;74.64;151820.03;10445516;28;20033;-73
2024/04/04 06:39:55;;;;;;;0.38;0.20;;;;;;;12.43;75.44;151803.22;10461427;28;20048;-74
2024/04/04 06:44:56;;;;;;;0.57;0.20;;;;;;;12.34;74.47;151781.22;10459615;28;20040;-73
2024/04/04 06:49:57;;;;;;;0.98;0.17;;;;;;;12.52;73.64;151827.78;10459864;28;20037;-73
2024/04/04 06:54:58;;;;;;;0.20;0.15;;;;;;;12.63;71.40;151854.94;10459008;28;20050;-73
2024/04/04 06:59:59;;;;;;;0.75;0.20;;;;;;;12.58;71.05;151842.03;10427011;28;20461;-72
2024/04/04 07:04:59;;;;;;;1.00;0.10;;;;;;;12.43;72.93;151804.50;10458669;28;20041;-72
2024/04/04 07:10:09;;;;;;;1.35;0.20;;;;;;;12.18;73.83;151741.19;10458792;28;20037;-73
2024/04/04 07:15:10;;;;;;;0.20;0.20;;;;;;;12.38;74.20;151791.59;10458498;28;20037;-74
2024/04/04 07:20:11;;;;;;;1.60;0.47;;;;;;;12.61;71.98;151851.03;10480733;28;20044;-73
2024/04/04 07:25:12;;;;;;;1.00;0.40;;;;;;;12.73;70.58;151879.50;10543001;28;20043;-74
2024/04/04 07:30:13;;;;;;;0.63;0.20;;;;;;;12.83;73.63;151906.66;10542745;28;20517;-73
2024/04/04 07:35:14;;;;;;;0.75;0.50;;;;;;;13.05;72.46;151961.00;10542544;28;20089;-73
2024/04/04 07:40:15;;;;;;;0.40;0.20;;;;;;;13.11;68.25;151977.84;10541938;28;20036;-72
2024/04/04 07:45:16;;;;;;;0.75;0.28;;;;;;;13.22;71.92;152003.69;10540570;28;20040;-74
2024/04/04 07:50:17;;;;;;;0.95;0.30;;;;;;;13.60;68.06;152100.78;10540559;28;20035;-72
2024/04/04 07:55:18;;;;;;;0.93;0.10;;;;;;;13.68;67.11;152121.50;10540439;28;20060;-72
2024/04/04 08:00:21;;;;;;;1.00;0.30;;;;;;;13.87;64.88;152169.38;10541215;28;20085;-73
2024/04/04 08:05:22;;;;;;;0.73;0.40;;;;;;;14.18;62.31;152247.06;10540476;28;20036;-72
2024/04/04 08:10:23;;;;;;;0.70;0.17;;;;;;;14.18;61.67;152247.06;10540444;28;20130;-72
2024/04/04 08:15:23;;;;;;;1.02;0.17;;;;;;;14.44;59.45;152314.38;10540564;28;20465;-72
2024/04/04 08:20:24;;;;;;;0.13;0.08;;;;;;;14.91;57.28;152433.56;10541610;28;20039;-72
2024/04/04 08:25:26;;;;;;;0.75;0.20;;;;;;;14.87;57.87;152424.53;10525738;28;20174;-74
2024/04/04 08:30:28;;;;;;;0.10;0.10;;;;;;;14.70;59.38;152379.16;10504562;28;20483;-72
2024/04/04 08:35:28;;;;;;;0.32;0.10;;;;;;;14.76;58.94;152394.72;10540549;28;20032;-72
2024/04/04 08:40:31;;;;;;;2.20;0.38;;;;;;;14.64;60.00;152366.19;10524848;28;20056;-73
2024/04/04 08:45:34;;;;;;;0.43;0.20;;;;;;;15.01;60.11;152459.50;10480928;28;20415;-73
2024/04/04 08:50:35;;;;;;;0.88;0.17;;;;;;;15.52;57.61;152589.03;10497717;28;20083;-73
2024/04/04 08:55:36;;;;;;;1.05;0.20;;;;;;;16.01;59.24;152713.50;10496503;28;20087;-73
2024/04/04 09:00:37;;;;;;;0.35;0.15;;;;;;;16.06;57.17;152725.16;10520401;28;20519;-72
2024/04/04 09:05:52;;;;;;;0.57;0.20;;;;;;;15.83;57.48;152668.13;10538203;28;20036;-72
2024/04/04 09:11:00;;;;;;;0.30;0.20;;;;;;;15.73;58.26;152642.22;10491458;28;20037;-73
2024/04/04 09:16:02;;;;;;;0.35;0.17;;;;;;;15.97;61.44;152701.84;10491493;28;20453;-73
2024/04/04 09:21:04;;;;;;;1.85;0.25;;;;;;;16.22;60.94;152766.66;10463141;28;20112;-73
2024/04/04 09:26:05;;;;;;;11.85;0.30;;;;;;;15.99;62.03;152707.03;10477184;28;20033;-73
2024/04/04 09:31:08;;;;;;;0.20;0.20;;;;;;;15.97;62.22;152703.13;10515176;28;20040;-73
2024/04/04 09:36:09;;;;;;;0.80;0.25;;;;;;;15.49;66.76;152581.25;10546546;28;20480;-73
2024/04/04 09:41:10;;;;;;;0.10;0.10;;;;;;;14.80;74.13;152405.06;10529661;28;20048;-74
2024/04/04 09:46:15;;;;;;;0.40;0.13;;;;;;;15.07;75.27;152473.72;10505303;28;20048;-73
2024/04/04 09:51:16;;;;;;;0.45;0.20;;;;;;;15.30;75.08;152533.31;10486590;28;20032;-73
2024/04/04 09:56:19;;;;;;;0.20;0.20;;;;;;;15.34;77.05;152543.69;10503315;28;20040;-74
2024/04/04 10:01:25;;;;;;;0.52;0.10;;;;;;;15.46;75.27;152572.22;10486218;28;20138;-74
2024/04/04 10:06:36;;;;;;;0.73;0.20;;;;;;;15.73;72.50;152642.22;10504105;28;20055;-72
2024/04/04 10:11:37;;;;;;;0.15;0.15;;;;;;;15.45;70.32;152570.91;10503864;28;20044;-72
2024/04/04 10:16:38;;;;;;;0.43;0.10;;;;;;;15.69;68.41;152631.84;10477775;28;20067;-72
2024/04/04 10:21:39;;;;;;;0.20;0.10;;;;;;;15.46;69.86;152573.50;10461617;28;20045;-72
2024/04/04 10:26:40;;;;;;;0.10;0.10;;;;;;;15.57;70.97;152601.97;10494946;28;20048;-73
2024/04/04 10:31:41;;;;;;;0.15;0.15;;;;;;;15.46;72.06;152573.50;10533068;28;20043;-72
2024/04/04 10:36:46;;;;;;;0.47;0.20;;;;;;;15.46;70.66;152573.50;10488520;28;20047;-72
2024/04/04 10:41:50;;;;;;;0.10;0.10;;;;;;;15.61;71.67;152611.06;10502793;28;20037;-73
2024/04/04 10:46:58;;;;;;;0.57;0.22;;;;;;;15.84;72.29;152669.41;10500972;28;20047;-73
2024/04/04 10:52:01;;;;;;;0.10;0.10;;;;;;;15.88;70.53;152679.78;10501114;28;20053;-73
2024/04/04 10:57:03;;;;;;;0.28;0.00;;;;;;;15.88;71.33;152681.09;10484912;28;20037;-74
2024/04/04 11:02:05;;;;;;;0.47;0.17;;;;;;;15.88;68.83;152681.09;10501298;28;20067;-72
2024/04/04 11:07:05;;;;;;;0.57;0.28;;;;;;;15.89;70.69;152683.72;10502021;28;20515;-73
2024/04/04 11:12:06;;;;;;;0.95;0.20;;;;;;;15.97;69.87;152703.13;10502015;28;20036;-74
2024/04/04 11:17:07;;;;;;;1.25;0.10;;;;;;;16.01;67.67;152712.22;10485120;28;20053;-72
2024/04/04 11:22:11;;;;;;;1.05;0.20;;;;;;;15.95;68.28;152696.66;10485023;28;20051;-72
2024/04/04 11:27:12;;;;;;;0.50;0.20;;;;;;;16.07;67.72;152729.09;10483672;28;20067;-72
2024/04/04 11:32:12;;;;;;;1.40;0.25;;;;;;;16.24;68.64;152771.81;10500249;28;20488;-73
2024/04/04 11:37:13;;;;;;;0.38;0.13;;;;;;;16.27;68.67;152779.63;10483290;28;20396;-72
2024/04/04 11:42:14;;;;;;;0.65;0.20;;;;;;;16.38;66.28;152806.88;10498877;28;20496;-73
2024/04/04 11:47:15;;;;;;;0.93;0.55;;;;;;;16.22;69.19;152766.66;10498453;28;20127;-73
2024/04/04 11:52:16;;;;;;;0.55;0.30;;;;;;;16.11;72.16;152739.47;10498781;28;20163;-72
2024/04/04 11:57:17;;;;;;;0.57;0.20;;;;;;;16.16;69.86;152751.13;10496895;28;20047;-74
2024/04/04 12:02:21;;;;;;;0.13;0.13;;;;;;;16.42;73.71;152817.22;10498903;28;20063;-72
2024/04/04 12:07:22;;;;;;;0.43;0.20;;;;;;;16.29;71.46;152783.50;10499819;28;20524;-73
2024/04/04 12:12:22;;;;;;;0.40;0.10;;;;;;;16.25;71.87;152774.47;10498132;28;20071;-72
2024/04/04 12:17:23;;;;;;;2.67;0.30;;;;;;;16.51;73.95;152839.25;10499352;28;20049;-72
2024/04/04 12:22:24;;;;;;;0.95;0.20;;;;;;;16.59;70.36;152860.00;10481747;28;20090;-73
2024/04/04 12:27:25;;;;;;;0.15;0.10;;;;;;;16.62;73.33;152867.81;10498400;28;20076;-73
2024/04/04 12:32:26;;;;;;;0.43;0.17;;;;;;;16.54;71.91;152847.03;10497743;28;20036;-72
2024/04/04 12:37:26;;;;;;;0.43;0.17;;;;;;;16.24;77.35;152770.53;10497826;28;20037;-72
2024/04/04 12:42:27;;;;;;;1.05;0.20;;;;;;;16.20;77.95;152760.16;10497693;28;20607;-74
2024/04/04 12:47:28;;;;;;;0.55;0.25;;;;;;;16.04;78.40;152720.00;10497565;28;20036;-74
2024/04/04 12:52:29;;;;;;;0.43;0.20;;;;;;;15.89;80.60;152683.72;10486344;28;20045;-73
2024/04/04 12:57:30;;;;;;;0.35;0.20;;;;;;;15.93;85.60;152691.47;10507209;28;20407;-74
2024/04/04 13:02:31;;;;;;;0.82;0.30;;;;;;;15.97;78.54;152701.84;10510160;28;20180;-73
2024/04/04 13:07:32;;;;;;;0.60;0.20;;;;;;;16.04;79.95;152721.28;10490883;28;20089;-73
2024/04/04 13:12:33;;;;;;;0.60;0.20;;;;;;;16.26;80.99;152775.75;10505932;28;20646;-73
2024/04/04 13:17:34;;;;;;;0.50;0.10;;;;;;;16.42;76.88;152815.91;10487855;28;20028;-74
2024/04/04 13:22:34;;;;;;;2.45;0.10;;;;;;;16.45;74.88;152825.00;10487416;28;20045;-72
2024/04/04 13:27:35;;;;;;;0.88;0.22;;;;;;;16.62;73.95;152869.09;10506418;28;20040;-73
2024/04/04 13:32:36;;;;;;;0.38;0.20;;;;;;;16.73;72.15;152896.34;10505542;28;20501;-74
2024/04/04 13:37:39;;;;;;;2.08;0.95;;;;;;;16.50;70.08;152836.66;10504884;28;20040;-73
2024/04/04 13:42:40;;;;;;;0.25;0.10;;;;;;;16.39;72.83;152809.47;10504604;28;20044;-75
2024/04/04 13:47:41;;;;;;;0.47;0.10;;;;;;;16.51;72.02;152839.25;10487782;28;20261;-75
2024/04/04 13:52:41;;;;;;;0.20;0.20;;;;;;;16.51;68.17;152840.59;10489149;28;20079;-73
2024/04/04 13:57:42;;;;;;;0.13;0.10;;;;;;;16.48;67.74;152832.78;10507338;28;20042;-71
2024/04/04 14:02:43;;;;;;;0.38;0.15;;;;;;;16.48;66.65;152832.78;10508545;28;20602;-75
2024/04/04 14:07:44;;;;;;;0.35;0.10;;;;;;;16.37;66.98;152805.53;10505518;28;20037;-75
2024/04/04 14:12:45;;;;;;;0.35;0.20;;;;;;;16.45;68.15;152823.72;10488976;28;20048;-74
2024/04/04 14:17:46;;;;;;;0.30;0.13;;;;;;;16.54;65.66;152847.03;10504899;28;20048;-73
2024/04/04 14:22:47;;;;;;;0.47;0.20;;;;;;;16.60;66.49;152862.59;10503897;28;20040;-72
2024/04/04 14:27:48;;;;;;;0.20;0.10;;;;;;;16.45;65.03;152825.00;10507006;28;20047;-75
2024/04/04 14:32:49;;;;;;;0.10;0.00;;;;;;;16.42;65.99;152815.91;10506277;28;20455;-74
2024/04/04 14:37:50;;;;;;;0.13;0.00;;;;;;;16.48;65.84;152831.50;10505670;28;20131;-71
2024/04/04 14:42:51;;;;;;;0.50;0.10;;;;;;;16.36;65.45;152801.66;10507918;28;20040;-71
2024/04/04 14:47:55;;;;;;;0.80;0.10;;;;;;;16.41;65.79;152814.63;10534527;28;20032;-72
2024/04/04 14:52:57;;;;;;;0.05;0.05;;;;;;;16.36;65.96;152801.66;10526399;28;20047;-71
2024/04/04 14:57:57;;;;;;;0.20;0.10;;;;;;;16.52;65.53;152843.19;10543866;28;20040;-72
2024/04/04 15:02:58;;;;;;;0.50;0.10;;;;;;;16.40;67.27;152812.03;10506620;28;20037;-71
2024/04/04 15:08:00;;;;;;;0.32;0.00;;;;;;;16.43;66.48;152819.84;10488907;28;20044;-72
2024/04/04 15:13:00;;;;;;;0.10;0.10;;;;;;;16.76;65.93;152902.88;10448833;28;20086;-72
2024/04/04 15:18:01;;;;;;;0.17;0.10;;;;;;;16.95;64.08;152952.13;10465477;28;20130;-71
2024/04/04 15:23:03;;;;;;;0.43;0.38;;;;;;;17.12;63.10;152994.94;10499449;28;20548;-72
2024/04/04 15:28:05;;;;;;;0.13;0.00;;;;;;;17.33;62.06;153048.16;10499294;28;20033;-72
2024/04/04 15:33:06;;;;;;;1.25;0.35;;;;;;;17.36;61.68;153057.25;10500102;28;20040;-71
2024/04/04 15:38:07;;;;;;;0.43;0.17;;;;;;;16.87;62.54;152931.44;10468736;28;20041;-71
2024/04/04 15:43:07;;;;;;;0.32;0.10;;;;;;;16.78;63.65;152908.09;10441976;28;20045;-70
2024/04/04 15:48:10;;;;;;;0.20;0.10;;;;;;;16.63;63.82;152870.38;10457948;28;20048;-72
2024/04/04 15:53:11;;;;;;;0.28;0.20;;;;;;;16.66;65.13;152878.19;10440949;28;20122;-72
2024/04/04 15:58:12;;;;;;;1.00;0.40;;;;;;;16.47;65.70;152828.88;10456882;28;20049;-71
2024/04/04 16:03:13;;;;;;;0.30;0.20;;;;;;;16.17;66.89;152753.72;10456399;28;20045;-71
2024/04/04 16:08:13;;;;;;;1.10;0.10;;;;;;;15.96;70.66;152700.53;10456794;28;20519;-71
2024/04/04 16:13:15;;;;;;;0.55;0.10;;;;;;;15.64;70.83;152620.19;10456542;28;20037;-70
2024/04/04 16:18:15;;;;;;;0.75;0.10;;;;;;;15.64;70.42;152620.19;10456180;28;20456;-71
2024/04/04 16:23:16;;;;;;;0.38;0.20;;;;;;;15.63;70.81;152616.28;10439475;28;20055;-71
2024/04/04 16:28:17;;;;;;;0.10;0.10;;;;;;;15.62;68.42;152613.63;10455659;28;20063;-70
2024/04/04 16:33:19;;;;;;;0.15;0.10;;;;;;;15.57;67.20;152601.97;10456077;28;20037;-71
2024/04/04 16:38:20;;;;;;;0.60;0.20;;;;;;;15.54;66.81;152592.94;10456513;28;20041;-72
2024/04/04 16:43:21;;;;;;;0.17;0.10;;;;;;;15.39;69.71;152555.34;10455461;28;20045;-72
2024/04/04 16:48:21;;;;;;;0.10;0.00;;;;;;;15.30;67.93;152532.03;10455791;28;20041;-71
2024/04/04 16:53:22;;;;;;;0.30;0.10;;;;;;;15.24;68.91;152517.78;10454909;28;20080;-71
2024/04/04 16:58:23;;;;;;;0.35;0.17;;;;;;;15.02;70.91;152460.78;10455199;28;20037;-71
2024/04/04 17:03:24;;;;;;;0.45;0.10;;;;;;;14.90;70.93;152430.97;10454986;28;20037;-71
2024/04/04 17:08:25;;;;;;;0.00;0.00;;;;;;;14.64;72.31;152366.19;10454585;28;20470;-71
2024/04/04 17:13:26;;;;;;;0.10;0.10;;;;;;;14.56;73.04;152345.47;10454478;28;20041;-72
2024/04/04 17:18:27;;;;;;;0.20;0.10;;;;;;;14.49;71.94;152326.09;10454923;28;20037;-72
2024/04/04 17:23:28;;;;;;;0.10;0.10;;;;;;;14.28;70.53;152274.22;10454561;28;20044;-71
2024/04/04 17:28:33;;;;;;;1.08;0.10;;;;;;;14.20;70.58;152253.50;10455926;28;20052;-72
2024/04/04 17:33:34;;;;;;;0.25;0.10;;;;;;;14.04;70.38;152213.41;10504654;28;20051;-71
2024/04/04 17:38:34;;;;;;;0.10;0.10;;;;;;;13.96;70.70;152191.38;10526052;28;20051;-71
2024/04/04 17:43:35;;;;;;;0.08;0.08;;;;;;;13.77;70.41;152144.81;10528916;28;20134;-72
2024/04/04 17:48:36;;;;;;;0.10;0.10;;;;;;;13.86;69.66;152166.81;10528722;28;20085;-71
2024/04/04 17:53:38;;;;;;;0.15;0.10;;;;;;;13.72;71.14;152130.53;10529178;28;20105;-71
2024/04/04 17:58:39;;;;;;;0.55;0.20;;;;;;;13.52;72.36;152081.38;10528199;28;20044;-72
2024/04/04 18:03:40;;;;;;;0.10;0.10;;;;;;;13.54;71.49;152085.25;10529135;28;20059;-72
2024/04/04 18:08:41;;;;;;;0.40;0.20;;;;;;;13.44;72.23;152060.66;10530066;28;20123;-72
2024/04/04 18:13:43;;;;;;;0.85;0.10;;;;;;;13.41;71.25;152052.88;10530163;28;20050;-72
2024/04/04 18:18:44;;;;;;;0.10;0.10;;;;;;;13.42;71.66;152055.50;10529659;28;20048;-72
2024/04/04 18:23:44;;;;;;;0.10;0.10;;;;;;;13.33;71.60;152033.50;10528371;28;20130;-71
2024/04/04 18:28:45;;;;;;;1.23;1.20;;;;;;;13.30;71.85;152024.44;10511331;28;20055;-71
2024/04/04 18:33:46;;;;;;;0.13;0.00;;;;;;;13.22;72.00;152005.03;10511146;28;20396;-70
2024/04/04 18:38:48;;;;;;;0.15;0.15;;;;;;;13.20;72.36;151999.81;10528067;28;20051;-74
2024/04/04 18:43:50;;;;;;;0.10;0.03;;;;;;;13.02;73.07;151954.56;10513146;28;20047;-74
2024/04/04 18:48:51;;;;;;;0.20;0.10;;;;;;;12.99;74.39;151946.78;10528285;28;20047;-74
2024/04/04 18:53:52;;;;;;;0.82;0.20;;;;;;;12.99;73.90;151945.50;10528579;28;20495;-74
2024/04/04 18:58:55;;;;;;;0.10;0.10;;;;;;;12.92;74.77;151927.34;10527487;28;20040;-74
2024/04/04 19:03:55;;;;;;;0.10;0.10;;;;;;;12.83;75.86;151906.66;10526954;28;20036;-73
2024/04/04 19:08:59;;;;;;;0.47;0.20;;;;;;;12.78;75.46;151892.44;10526965;28;20083;-74
2024/04/04 19:14:00;;;;;;;0.52;0.28;;;;;;;12.59;76.77;151844.59;10526572;28;20040;-74
2024/04/04 19:19:01;;;;;;;0.20;0.20;;;;;;;12.58;77.28;151842.03;10527664;28;20089;-73
2024/04/04 19:24:02;;;;;;;0.20;0.20;;;;;;;12.44;77.74;151807.13;10527492;28;20082;-74
2024/04/04 19:29:03;;;;;;;0.10;0.10;;;;;;;12.34;78.38;151782.53;10528026;28;20496;-74
2024/04/04 19:34:05;;;;;;;0.15;0.08;;;;;;;12.16;79.82;151736.00;10526695;28;20044;-74
2024/04/04 19:39:06;;;;;;;0.10;0.10;;;;;;;12.21;79.57;151748.91;10509379;28;20036;-73
2024/04/04 19:44:07;;;;;;;0.55;0.20;;;;;;;12.21;79.33;151748.91;10525972;28;20039;-73
2024/04/04 19:49:08;;;;;;;0.22;0.20;;;;;;;12.13;79.79;151728.25;10525296;28;20403;-73
2024/04/04 19:54:09;;;;;;;0.25;0.20;;;;;;;12.06;80.24;151711.44;10526110;28;20040;-74
2024/04/04 19:59:10;;;;;;;0.10;0.10;;;;;;;11.96;81.25;151684.31;10525036;28;20412;-74
2024/04/04 20:04:15;;;;;;;0.00;0.00;;;;;;;11.99;80.60;151693.31;10507108;28;20085;-74
2024/04/04 20:09:16;;;;;;;0.10;0.10;;;;;;;11.80;81.55;151645.47;10523851;28;20123;-73
2024/04/04 20:14:17;;;;;;;0.22;0.20;;;;;;;11.70;82.87;151619.63;10525618;28;20495;-73
2024/04/04 20:19:18;;;;;;;0.35;0.30;;;;;;;11.69;82.86;151615.78;10525052;28;20047;-74
2024/04/04 20:24:18;;;;;;;1.17;0.10;;;;;;;11.60;83.30;151595.09;10524902;28;20044;-74
2024/04/04 20:29:21;;;;;;;0.20;0.20;;;;;;;11.78;82.18;151640.31;10524285;28;20113;-75
2024/04/04 20:34:22;;;;;;;0.30;0.10;;;;;;;11.63;83.35;151601.53;10524753;28;20523;-74
2024/04/04 20:39:23;;;;;;;0.30;0.20;;;;;;;11.74;82.79;151628.69;10525868;28;20036;-72
2024/04/04 20:44:24;;;;;;;0.20;0.10;;;;;;;11.81;82.68;151646.75;10508056;28;20051;-73
2024/04/04 20:49:25;;;;;;;0.57;0.20;;;;;;;11.93;81.97;151676.53;10524025;28;20036;-72
2024/04/04 20:54:25;;;;;;;0.10;0.10;;;;;;;11.92;81.90;151675.25;10506217;28;20058;-74
2024/04/04 20:59:26;;;;;;;0.15;0.10;;;;;;;11.92;81.56;151673.97;10523100;28;20058;-74
2024/04/04 21:04:27;;;;;;;0.13;0.10;;;;;;;11.95;81.21;151682.97;10522618;28;20046;-73
2024/04/04 21:09:28;;;;;;;0.43;0.20;;;;;;;11.88;81.46;151664.91;10523745;28;20040;-72
2024/04/04 21:14:30;;;;;;;0.13;0.10;;;;;;;11.83;82.03;151653.28;10528269;28;20468;-73
2024/04/04 21:19:33;;;;;;;0.77;0.20;;;;;;;11.75;82.51;151631.25;10531478;28;20044;-73
2024/04/04 21:24:34;;;;;;;0.20;0.20;;;;;;;11.79;82.57;151642.88;10514114;28;20036;-73
2024/04/04 21:29:35;;;;;;;0.50;0.20;;;;;;;11.71;83.33;151622.22;10530953;28;20051;-72
2024/04/04 21:34:36;;;;;;;0.85;0.20;;;;;;;11.70;83.53;151619.63;10533376;28;20441;-73
2024/04/04 21:39:37;;;;;;;0.17;0.15;;;;;;;11.61;84.16;151597.66;10514340;28;20462;-73
2024/04/04 21:44:38;;;;;;;0.68;0.60;;;;;;;11.56;85.18;151583.47;10530753;28;20093;-73
2024/04/04 21:49:39;;;;;;;0.45;0.20;;;;;;;11.52;85.80;151574.41;10531120;28;20089;-73
2024/04/04 21:54:40;;;;;;;0.10;0.10;;;;;;;11.48;86.16;151562.78;10529816;28;20043;-74
2024/04/04 21:59:40;;;;;;;1.40;0.30;;;;;;;11.54;85.75;151579.56;10530276;28;20123;-73
2024/04/04 22:04:41;;;;;;;0.95;0.25;;;;;;;11.42;86.71;151548.59;10528888;28;20040;-73
2024/04/04 22:09:42;;;;;;;0.50;0.30;;;;;;;11.49;86.24;151566.63;10511109;28;20093;-73
2024/04/04 22:14:43;;;;;;;0.40;0.20;;;;;;;11.46;86.71;151557.59;10527906;28;20490;-73
2024/04/04 22:19:43;;;;;;;0.20;0.10;;;;;;;11.42;87.16;151547.25;10511243;28;20074;-74
2024/04/04 22:24:44;;;;;;;0.70;0.15;;;;;;;11.47;86.94;151561.50;10527104;28;20036;-73
2024/04/04 22:29:45;;;;;;;0.30;0.20;;;;;;;11.56;86.12;151584.75;10528208;28;20067;-73
2024/04/04 22:34:46;;;;;;;0.38;0.15;;;;;;;11.55;86.00;151580.84;10511385;28;20032;-73
2024/04/04 22:39:47;;;;;;;0.30;0.10;;;;;;;11.58;85.96;151588.59;10527829;28;20040;-72
2024/04/04 22:44:48;;;;;;;0.57;0.20;;;;;;;11.45;87.05;151556.31;10510603;28;20036;-73
2024/04/04 22:49:49;;;;;;;0.88;0.20;;;;;;;11.45;87.58;151556.31;10526225;28;20039;-73
2024/04/04 22:54:49;;;;;;;0.35;0.30;;;;;;;11.40;88.11;151543.38;10525810;28;20044;-72
2024/04/04 22:59:50;;;;;;;0.55;0.22;;;;;;;11.38;88.30;151538.25;10509492;28;20134;-74
2024/04/04 23:04:52;;;;;;;0.40;0.30;;;;;;;11.49;88.17;151566.63;10525911;28;20040;-73